createdAt,value
2019-05-02T00:00:05.953Z,121.50
2019-05-02T00:01:05.981Z,152.10
2019-05-02T00:02:05.930Z,155.20
2019-05-02T00:03:05.923Z,131.20
2019-05-02T00:04:05.911Z,130.30
2019-05-02T00:05:05.902Z,133.30
2019-05-02T00:06:07.370Z,142.80
2019-05-02T00:07:05.875Z,142.90
2019-05-02T00:08:05.859Z,149.10
2019-05-02T00:09:09.145Z,152.20
2019-05-02T00:10:06.843Z,153.90
2019-05-02T00:11:05.853Z,142.30
2019-05-02T00:12:05.832Z,150.60
2019-05-02T00:13:05.812Z,168.30
2019-05-02T00:14:05.798Z,165.80
2019-05-02T00:15:05.787Z,153.50
2019-05-02T00:16:09.136Z,169.70
2019-05-02T00:17:06.773Z,177.80
2019-05-02T00:18:05.751Z,142.20
2019-05-02T00:19:09.055Z,144.90
2019-05-02T00:20:06.728Z,148.40
2019-05-02T00:21:05.728Z,140.60
2019-05-02T00:22:05.759Z,143.40
2019-05-02T00:23:05.706Z,138.60
2019-05-02T00:24:05.700Z,137.70
2019-05-02T00:25:05.676Z,128.70
2019-05-02T00:26:05.678Z,136.30
2019-05-02T00:27:05.680Z,133.50
2019-05-02T00:28:07.823Z,119.20
2019-05-02T00:29:06.657Z,142.40
2019-05-02T00:30:05.636Z,105.20
2019-05-02T00:31:07.475Z,124.10
2019-05-02T00:32:06.627Z,112.00
2019-05-02T00:33:05.596Z,132.40
2019-05-02T00:34:05.619Z,111.60
2019-05-02T00:35:05.568Z,110.00
2019-05-02T00:36:05.568Z,103.30
2019-05-02T00:37:05.580Z,130.70
2019-05-02T00:38:05.547Z,105.20
2019-05-02T00:39:09.510Z,117.10
2019-05-02T00:40:06.515Z,110.60
2019-05-02T00:41:05.527Z,110.10
2019-05-02T00:42:12.429Z,113.90
2019-05-02T00:43:06.505Z,108.80
2019-05-02T00:44:06.092Z,102.70
2019-05-02T00:45:06.470Z,101.60
2019-05-02T00:46:05.462Z,99.20
2019-05-02T00:47:06.108Z,98.30
2019-05-02T00:48:06.447Z,103.40
2019-05-02T00:49:05.423Z,111.60
2019-05-02T00:50:06.188Z,112.40
2019-05-02T00:51:06.407Z,122.80
2019-05-02T00:52:05.397Z,135.20
2019-05-02T00:53:07.292Z,143.00
2019-05-02T00:54:06.392Z,145.80
2019-05-02T00:55:05.356Z,154.40
2019-05-02T00:56:09.169Z,116.40
2019-05-02T00:57:06.327Z,136.30
2019-05-02T00:58:05.357Z,127.00
2019-05-02T00:59:07.423Z,119.70
2019-05-02T01:00:05.307Z,123.60
2019-05-02T01:01:05.300Z,105.90
2019-05-02T01:02:07.086Z,110.00
2019-05-02T01:03:05.286Z,151.40
2019-05-02T01:04:05.265Z,159.90
2019-05-02T01:05:05.268Z,143.20
2019-05-02T01:06:05.248Z,154.00
2019-05-02T01:07:05.224Z,138.60
2019-05-02T01:08:05.224Z,171.40
2019-05-02T01:09:05.780Z,146.80
2019-05-02T01:10:06.202Z,142.60
2019-05-02T01:11:05.184Z,141.20
2019-05-02T01:12:08.282Z,139.20
2019-05-02T01:13:05.170Z,137.30
2019-05-02T01:14:05.151Z,140.40
2019-05-02T01:15:08.389Z,137.30
2019-05-02T01:16:05.144Z,138.70
2019-05-02T01:17:05.126Z,151.90
2019-05-02T01:18:06.127Z,136.40
2019-05-02T01:19:05.093Z,155.70
2019-05-02T01:20:05.095Z,141.50
2019-05-02T01:21:05.104Z,160.50
2019-05-02T01:22:05.098Z,155.30
2019-05-02T01:23:05.055Z,174.90
2019-05-02T01:24:05.055Z,174.50
2019-05-02T01:25:05.050Z,138.80
2019-05-02T01:26:05.034Z,155.80
2019-05-02T01:27:06.501Z,171.40
2019-05-02T01:28:05.011Z,179.20
2019-05-02T01:29:04.992Z,170.60
2019-05-02T01:30:06.080Z,129.60
2019-05-02T01:31:04.999Z,149.00
2019-05-02T01:32:04.972Z,116.60
2019-05-02T01:33:06.396Z,118.70
2019-05-02T01:34:04.940Z,139.00
2019-05-02T01:35:04.953Z,128.30
2019-05-02T01:36:06.393Z,113.00
2019-05-02T01:37:04.935Z,133.30
2019-05-02T01:38:04.909Z,116.00
2019-05-02T01:39:07.503Z,118.60
2019-05-02T01:40:04.881Z,105.70
2019-05-02T01:41:04.874Z,135.80
2019-05-02T01:42:05.442Z,130.30
2019-05-02T01:43:04.854Z,137.70
2019-05-02T01:44:04.850Z,98.00
2019-05-02T01:45:06.747Z,101.30
2019-05-02T01:46:05.819Z,100.40
2019-05-02T01:47:04.798Z,113.70
2019-05-02T01:48:04.954Z,128.60
2019-05-02T01:49:04.820Z,119.50
2019-05-02T01:50:04.767Z,124.40
2019-05-02T01:51:10.070Z,130.10
2019-05-02T01:52:05.763Z,143.70
2019-05-02T01:53:04.739Z,125.30
2019-05-02T01:54:05.097Z,139.10
2019-05-02T01:55:04.727Z,157.50
2019-05-02T01:56:04.715Z,131.60
2019-05-02T01:57:08.622Z,145.40
2019-05-02T01:58:05.682Z,150.50
2019-05-02T01:59:04.703Z,158.10
2019-05-02T02:00:09.377Z,156.30
2019-05-02T02:01:05.663Z,147.50
2019-05-02T02:02:04.648Z,196.90
2019-05-02T02:03:09.050Z,172.60
2019-05-02T02:04:05.637Z,147.50
2019-05-02T02:05:04.633Z,154.00
2019-05-02T02:06:08.120Z,110.40
2019-05-02T02:07:05.594Z,109.00
2019-05-02T02:08:04.571Z,101.40
2019-05-02T02:09:08.435Z,125.90
2019-05-02T02:10:05.577Z,96.80
2019-05-02T02:11:04.587Z,115.50
2019-05-02T02:12:04.914Z,113.60
2019-05-02T02:13:05.285Z,125.80
2019-05-02T02:14:07.429Z,121.50
2019-05-02T02:15:05.505Z,123.30
2019-05-02T02:16:05.847Z,126.30
2019-05-02T02:17:04.516Z,123.50
2019-05-02T02:18:04.475Z,149.00
2019-05-02T02:19:05.399Z,121.80
2019-05-02T02:20:04.458Z,107.40
2019-05-02T02:21:04.447Z,154.30
2019-05-02T02:22:04.487Z,134.20
2019-05-02T02:23:04.436Z,167.10
2019-05-02T02:24:04.404Z,138.70
2019-05-02T02:25:04.414Z,191.00
2019-05-02T02:26:06.808Z,148.80
2019-05-02T02:27:05.405Z,102.70
2019-05-02T02:28:04.366Z,120.00
2019-05-02T02:29:07.944Z,98.10
2019-05-02T02:30:04.347Z,114.10
2019-05-02T02:31:07.467Z,112.80
2019-05-02T02:32:04.337Z,150.00
2019-05-02T02:33:07.567Z,129.20
2019-05-02T02:34:04.301Z,133.60
2019-05-02T02:35:10.087Z,141.10
2019-05-02T02:36:05.281Z,158.50
2019-05-02T02:37:05.310Z,146.20
2019-05-02T02:38:05.284Z,163.60
2019-05-02T02:39:06.919Z,181.30
2019-05-02T02:40:05.244Z,182.40
2019-05-02T02:41:06.443Z,164.90
2019-05-02T02:42:05.225Z,224.80
2019-05-02T02:43:22.245Z,212.80
2019-05-02T02:44:05.216Z,187.90
2019-05-02T02:45:04.197Z,179.70
2019-05-02T02:46:04.185Z,233.80
2019-05-02T02:47:04.175Z,234.90
2019-05-02T02:48:04.145Z,196.90
2019-05-02T02:49:04.147Z,209.40
2019-05-02T02:50:05.339Z,226.80
2019-05-02T02:51:04.123Z,231.10
2019-05-02T02:52:05.025Z,194.40
2019-05-02T02:53:04.121Z,200.10
2019-05-02T02:54:05.861Z,190.10
2019-05-02T02:55:04.082Z,219.60
2019-05-02T02:56:04.262Z,171.30
2019-05-02T02:57:04.069Z,201.30
2019-05-02T02:58:04.698Z,180.10
2019-05-02T02:59:04.084Z,180.50
2019-05-02T03:00:07.788Z,221.30
2019-05-02T03:01:05.019Z,159.40
2019-05-02T03:02:10.073Z,165.60
2019-05-02T03:03:04.989Z,199.10
2019-05-02T03:04:09.642Z,196.60
2019-05-02T03:05:04.979Z,169.40
2019-05-02T03:06:05.631Z,166.90
2019-05-02T03:07:03.951Z,151.70
2019-05-02T03:08:05.404Z,147.30
2019-05-02T03:09:03.922Z,138.70
2019-05-02T03:10:06.031Z,123.00
2019-05-02T03:11:03.912Z,156.60
2019-05-02T03:12:04.580Z,117.90
2019-05-02T03:13:03.887Z,124.60
2019-05-02T03:14:07.405Z,119.90
2019-05-02T03:15:04.869Z,110.30
2019-05-02T03:16:07.068Z,107.20
2019-05-02T03:17:04.839Z,158.70
2019-05-02T03:18:03.834Z,117.00
2019-05-02T03:19:03.823Z,119.40
2019-05-02T03:20:04.021Z,95.30
2019-05-02T03:21:03.856Z,95.90
2019-05-02T03:22:04.187Z,84.60
2019-05-02T03:23:03.789Z,89.80
2019-05-02T03:24:05.814Z,105.20
2019-05-02T03:25:03.752Z,100.40
2019-05-02T03:26:07.847Z,84.70
2019-05-02T03:27:04.716Z,96.70
2019-05-02T03:28:03.751Z,126.80
2019-05-02T03:29:03.742Z,99.80
2019-05-02T03:30:03.690Z,100.80
2019-05-02T03:31:20.963Z,95.70
2019-05-02T03:32:14.401Z,95.10
2019-05-02T03:33:10.250Z,84.20
2019-05-02T03:34:04.703Z,101.10
2019-05-02T03:35:03.655Z,91.40
2019-05-02T03:36:03.635Z,93.70
2019-05-02T03:37:10.688Z,93.70
2019-05-02T03:38:04.608Z,103.00
2019-05-02T03:39:13.582Z,103.40
2019-05-02T03:40:04.606Z,94.90
2019-05-02T03:41:03.590Z,108.50
2019-05-02T03:42:04.976Z,104.50
2019-05-02T03:43:03.571Z,105.60
2019-05-02T03:44:11.370Z,119.90
2019-05-02T03:45:05.276Z,119.10
2019-05-02T03:46:03.535Z,138.70
2019-05-02T03:47:04.990Z,124.80
2019-05-02T03:48:03.539Z,154.40
2019-05-02T03:49:07.376Z,164.60
2019-05-02T03:50:08.343Z,123.30
2019-05-02T03:51:05.215Z,144.90
2019-05-02T03:52:05.901Z,125.40
2019-05-02T03:53:03.450Z,135.00
2019-05-02T03:54:07.785Z,120.20
2019-05-02T03:55:04.450Z,118.60
2019-05-02T03:56:10.604Z,107.30
2019-05-02T03:57:04.419Z,110.80
2019-05-02T03:58:12.860Z,103.50
2019-05-02T03:59:04.434Z,106.10
2019-05-02T04:00:03.391Z,111.00
2019-05-02T04:01:03.900Z,111.80
2019-05-02T04:02:03.393Z,102.90
2019-05-02T04:03:03.366Z,104.50
2019-05-02T04:04:03.343Z,94.10
2019-05-02T04:05:03.335Z,86.90
2019-05-02T04:06:03.322Z,98.00
2019-05-02T04:07:03.409Z,107.40
2019-05-02T04:08:05.385Z,99.70
2019-05-02T04:09:05.356Z,107.90
2019-05-02T04:10:04.689Z,144.30
2019-05-02T04:11:03.645Z,111.90
2019-05-02T04:12:03.588Z,94.40
2019-05-02T04:13:03.512Z,90.70
2019-05-02T04:14:14.885Z,101.90
2019-05-02T04:15:04.318Z,127.40
2019-05-02T04:16:14.535Z,171.90
2019-05-02T04:17:04.310Z,159.40
2019-05-02T04:18:08.386Z,141.50
2019-05-02T04:19:04.302Z,156.90
2019-05-02T04:20:09.783Z,109.00
2019-05-02T04:21:04.243Z,96.80
2019-05-02T04:22:08.425Z,100.30
2019-05-02T04:23:04.113Z,96.30
2019-05-02T04:24:12.999Z,122.90
2019-05-02T04:25:06.325Z,91.10
2019-05-02T04:26:06.804Z,97.00
2019-05-02T04:27:04.202Z,105.50
2019-05-02T04:28:05.959Z,90.30
2019-05-02T04:29:04.247Z,92.50
2019-05-02T04:30:11.618Z,93.10
2019-05-02T04:31:04.151Z,86.00
2019-05-02T04:32:10.817Z,89.90
2019-05-02T04:33:04.044Z,84.00
2019-05-02T04:34:14.198Z,79.20
2019-05-02T04:35:03.991Z,78.50
2019-05-02T04:36:14.033Z,77.40
2019-05-02T04:37:04.296Z,78.60
2019-05-02T04:38:09.986Z,81.40
2019-05-02T04:39:05.659Z,94.00
2019-05-02T04:40:07.918Z,82.50
2019-05-02T04:41:03.952Z,75.20
2019-05-02T04:42:13.021Z,77.50
2019-05-02T04:43:08.229Z,75.30
2019-05-02T04:44:04.247Z,81.10
2019-05-02T04:45:21.171Z,77.60
2019-05-02T04:46:09.454Z,72.20
2019-05-02T04:47:13.933Z,76.90
2019-05-02T04:48:04.239Z,80.20
2019-05-02T04:49:02.940Z,81.30
2019-05-02T04:50:08.006Z,80.50
2019-05-02T04:51:10.136Z,75.80
2019-05-02T04:52:10.374Z,88.80
2019-05-02T04:53:03.827Z,79.50
2019-05-02T04:54:02.792Z,75.00
2019-05-02T04:55:14.797Z,74.00
2019-05-02T04:56:06.845Z,72.30
2019-05-02T04:57:03.884Z,72.10
2019-05-02T04:58:03.153Z,73.40
2019-05-02T04:59:14.015Z,83.60
2019-05-02T05:00:08.474Z,65.70
2019-05-02T05:01:03.849Z,67.60
2019-05-02T05:02:02.841Z,72.70
2019-05-02T05:03:07.223Z,76.20
2019-05-02T05:04:03.870Z,78.80
2019-05-02T05:05:02.757Z,71.80
2019-05-02T05:06:10.048Z,64.00
2019-05-02T05:07:03.690Z,69.40
2019-05-02T05:08:02.694Z,64.70
2019-05-02T05:09:04.005Z,69.80
2019-05-02T05:10:03.769Z,65.20
2019-05-02T05:11:02.741Z,67.20
2019-05-02T05:12:02.840Z,62.80
2019-05-02T05:13:02.784Z,63.20
2019-05-02T05:14:02.633Z,62.70
2019-05-02T05:15:02.629Z,67.50
2019-05-02T05:16:02.989Z,65.40
2019-05-02T05:17:02.738Z,62.20
2019-05-02T05:18:04.440Z,58.60
2019-05-02T05:19:03.605Z,61.10
2019-05-02T05:20:10.452Z,60.40
2019-05-02T05:21:03.696Z,60.10
2019-05-02T05:22:04.949Z,63.80
2019-05-02T05:23:02.495Z,59.50
2019-05-02T05:24:02.465Z,59.00
2019-05-02T05:25:02.453Z,62.20
2019-05-02T05:26:04.707Z,60.00
2019-05-02T05:27:02.467Z,71.10
2019-05-02T05:28:05.901Z,58.50
2019-05-02T05:29:02.706Z,57.00
2019-05-02T05:30:09.422Z,57.90
2019-05-02T05:31:03.478Z,59.70
2019-05-02T05:32:05.705Z,56.80
2019-05-02T05:33:03.364Z,53.20
2019-05-02T05:34:02.495Z,55.90
2019-05-02T05:35:03.420Z,56.90
2019-05-02T05:36:03.507Z,60.70
2019-05-02T05:37:03.801Z,59.90
2019-05-02T05:38:03.441Z,61.70
2019-05-02T05:39:03.013Z,51.80
2019-05-02T05:40:03.568Z,56.40
2019-05-02T05:41:03.075Z,57.00
2019-05-02T05:42:03.336Z,58.20
2019-05-02T05:43:11.317Z,61.00
2019-05-02T05:44:03.269Z,62.80
2019-05-02T05:45:03.714Z,57.40
2019-05-02T05:46:10.628Z,63.00
2019-05-02T05:47:03.389Z,56.20
2019-05-02T05:48:02.235Z,62.00
2019-05-02T05:49:02.378Z,58.30
2019-05-02T05:50:02.294Z,55.80
2019-05-02T05:51:02.282Z,52.80
2019-05-02T05:52:03.762Z,59.40
2019-05-02T05:53:02.215Z,54.40
2019-05-02T05:54:03.159Z,55.00
2019-05-02T05:55:04.772Z,56.90
2019-05-02T05:56:02.594Z,57.50
2019-05-02T05:57:02.152Z,55.90
2019-05-02T05:58:12.407Z,56.00
2019-05-02T05:59:03.309Z,58.70
2019-05-02T06:00:03.956Z,58.90
2019-05-02T06:01:03.191Z,56.60
2019-05-02T06:02:05.409Z,58.20
2019-05-02T06:03:13.058Z,56.60
2019-05-02T06:04:03.133Z,59.40
2019-05-02T06:05:03.712Z,58.90
2019-05-02T06:06:02.107Z,53.20
2019-05-02T06:07:03.277Z,54.60
2019-05-02T06:08:01.981Z,59.80
2019-05-02T06:09:01.993Z,59.90
2019-05-02T06:10:02.224Z,59.10
2019-05-02T06:11:02.953Z,63.10
2019-05-02T06:12:01.938Z,62.00
2019-05-02T06:13:05.233Z,58.00
2019-05-02T06:14:02.910Z,59.20
2019-05-02T06:15:03.759Z,55.10
2019-05-02T06:16:03.220Z,56.30
2019-05-02T06:17:01.923Z,60.10
2019-05-02T06:18:04.814Z,58.50
2019-05-02T06:19:01.858Z,60.70
2019-05-02T06:20:01.847Z,58.00
2019-05-02T06:21:03.453Z,58.80
2019-05-02T06:22:02.883Z,59.50
2019-05-02T06:23:01.861Z,61.70
2019-05-02T06:24:01.809Z,59.60
2019-05-02T06:25:01.812Z,56.60
2019-05-02T06:26:07.910Z,60.60
2019-05-02T06:27:02.787Z,59.10
2019-05-02T06:28:05.184Z,56.80
2019-05-02T06:29:01.787Z,55.00
2019-05-02T06:30:01.750Z,55.90
2019-05-02T06:31:02.120Z,57.40
2019-05-02T06:32:02.710Z,60.40
2019-05-02T06:33:01.737Z,60.60
2019-05-02T06:34:02.088Z,56.70
2019-05-02T06:35:01.712Z,58.80
2019-05-02T06:36:02.507Z,60.40
2019-05-02T06:37:01.669Z,56.40
2019-05-02T06:38:01.668Z,59.10
2019-05-02T06:39:01.648Z,56.10
2019-05-02T06:40:03.054Z,59.00
2019-05-02T06:41:02.675Z,58.40
2019-05-02T06:42:01.629Z,59.30
2019-05-02T06:43:04.227Z,58.50
2019-05-02T06:44:02.599Z,62.30
2019-05-02T06:45:01.587Z,53.10
2019-05-02T06:46:14.902Z,56.10
2019-05-02T06:47:04.277Z,57.40
2019-05-02T06:48:01.556Z,59.50
2019-05-02T06:49:01.538Z,59.20
2019-05-02T06:50:02.773Z,60.40
2019-05-02T06:51:01.537Z,58.10
2019-05-02T06:52:01.534Z,58.00
2019-05-02T06:53:04.363Z,56.80
2019-05-02T06:54:02.472Z,56.30
2019-05-02T06:55:01.468Z,55.60
2019-05-02T06:56:01.469Z,55.30
2019-05-02T06:57:01.517Z,54.00
2019-05-02T06:58:02.890Z,58.20
2019-05-02T06:59:01.463Z,55.50
2019-05-02T07:00:01.418Z,54.10
2019-05-02T07:01:01.409Z,52.80
2019-05-02T07:02:01.401Z,52.60
2019-05-02T07:03:05.129Z,52.90
2019-05-02T07:04:04.261Z,52.50
2019-05-02T07:05:01.361Z,58.00
2019-05-02T07:06:02.742Z,51.30
2019-05-02T07:07:01.497Z,52.90
2019-05-02T07:08:01.356Z,57.20
2019-05-02T07:09:01.607Z,55.00
2019-05-02T07:10:01.302Z,53.10
2019-05-02T07:11:03.136Z,53.40
2019-05-02T07:12:01.676Z,51.70
2019-05-02T07:13:09.946Z,57.80
2019-05-02T07:14:12.973Z,54.90
2019-05-02T07:15:03.861Z,51.70
2019-05-02T07:16:01.236Z,50.30
2019-05-02T07:17:01.235Z,50.70
2019-05-02T07:18:05.440Z,49.80
2019-05-02T07:19:02.203Z,52.60
2019-05-02T07:20:04.102Z,49.10
2019-05-02T07:21:01.196Z,47.10
2019-05-02T07:22:04.192Z,45.20
2019-05-02T07:23:01.217Z,49.30
2019-05-02T07:24:01.195Z,45.30
2019-05-02T07:25:01.931Z,49.50
2019-05-02T07:26:02.134Z,46.90
2019-05-02T07:27:02.542Z,46.60
2019-05-02T07:28:04.655Z,55.50
2019-05-02T07:29:02.123Z,48.40
2019-05-02T07:30:01.123Z,51.40
2019-05-02T07:31:01.110Z,50.70
2019-05-02T07:32:01.111Z,48.50
2019-05-02T07:33:02.309Z,47.70
2019-05-02T07:34:01.094Z,49.10
2019-05-02T07:35:01.038Z,48.60
2019-05-02T07:36:01.461Z,51.30
2019-05-02T07:37:01.008Z,53.40
2019-05-02T07:38:01.017Z,51.80
2019-05-02T07:39:05.232Z,52.30
2019-05-02T07:40:01.991Z,52.50
2019-05-02T07:41:01.016Z,50.60
2019-05-02T07:42:05.971Z,49.40
2019-05-02T07:43:01.942Z,51.60
2019-05-02T07:44:00.953Z,51.40
2019-05-02T07:45:04.417Z,52.90
2019-05-02T07:46:01.922Z,51.50
2019-05-02T07:47:02.448Z,50.20
2019-05-02T07:48:01.540Z,47.80
2019-05-02T07:49:00.916Z,50.90
2019-05-02T07:50:05.397Z,49.60
2019-05-02T07:51:01.860Z,53.60
2019-05-02T07:52:00.866Z,51.90
2019-05-02T07:53:04.427Z,51.80
2019-05-02T07:54:01.875Z,51.30
2019-05-02T07:55:01.165Z,51.20
2019-05-02T07:56:00.793Z,52.00
2019-05-02T07:57:02.382Z,52.60
2019-05-02T07:58:02.014Z,54.30
2019-05-02T07:59:01.797Z,53.30
2019-05-02T08:00:02.603Z,55.90
2019-05-02T08:01:00.773Z,54.60
2019-05-02T08:02:00.745Z,51.70
2019-05-02T08:03:00.735Z,55.00
2019-05-02T08:04:04.459Z,55.10
2019-05-02T08:05:00.732Z,51.00
2019-05-02T08:06:00.720Z,52.80
2019-05-02T08:07:00.703Z,49.30
2019-05-02T08:08:00.682Z,49.40
2019-05-02T08:09:01.625Z,49.60
2019-05-02T08:10:01.683Z,51.10
2019-05-02T08:11:02.884Z,53.10
2019-05-02T08:12:00.613Z,49.30
2019-05-02T08:13:00.643Z,52.00
2019-05-02T08:14:00.686Z,52.60
2019-05-02T08:15:00.614Z,50.50
2019-05-02T08:16:00.602Z,52.90
2019-05-02T08:17:05.846Z,49.00
2019-05-02T08:18:01.652Z,54.80
2019-05-02T08:19:04.966Z,50.90
2019-05-02T08:20:00.560Z,55.90
2019-05-02T08:21:00.532Z,50.20
2019-05-02T08:22:04.713Z,52.00
2019-05-02T08:23:01.511Z,54.80
2019-05-02T08:24:02.179Z,53.90
2019-05-02T08:25:00.497Z,51.80
2019-05-02T08:26:00.500Z,55.50
2019-05-02T08:27:00.470Z,54.70
2019-05-02T08:28:00.482Z,54.40
2019-05-02T08:29:00.435Z,54.70
2019-05-02T08:30:04.309Z,55.10
2019-05-02T08:31:01.440Z,55.10
2019-05-02T08:32:00.404Z,54.50
2019-05-02T08:33:00.404Z,56.40
2019-05-02T08:34:00.428Z,53.50
2019-05-02T08:35:00.381Z,55.10
2019-05-02T08:36:00.363Z,58.80
2019-05-02T08:37:03.388Z,55.30
2019-05-02T08:38:00.352Z,51.30
2019-05-02T08:39:00.331Z,52.40
2019-05-02T08:40:00.329Z,61.20
2019-05-02T08:41:00.317Z,55.20
2019-05-02T08:42:00.305Z,59.20
2019-05-02T08:43:03.695Z,57.70
2019-05-02T08:44:01.262Z,54.90
2019-05-02T08:45:00.988Z,55.90
2019-05-02T08:46:00.296Z,58.50
2019-05-02T08:47:00.249Z,56.70
2019-05-02T08:48:04.844Z,58.10
2019-05-02T08:49:01.240Z,57.70
2019-05-02T08:50:00.221Z,60.10
2019-05-02T08:51:00.202Z,55.20
2019-05-02T08:52:00.213Z,58.90
2019-05-02T08:53:00.220Z,61.90
2019-05-02T08:54:00.193Z,60.90
2019-05-02T08:55:04.357Z,56.50
2019-05-02T08:56:01.142Z,58.00
2019-05-02T08:57:00.647Z,58.30
2019-05-02T08:58:00.141Z,59.20
2019-05-02T08:59:00.113Z,57.00
2019-05-02T09:00:01.370Z,60.10
2019-05-02T09:01:00.103Z,58.00
2019-05-02T09:02:00.082Z,57.10
2019-05-02T09:03:02.590Z,53.70
2019-05-02T09:04:00.062Z,58.60
2019-05-02T09:05:04.667Z,54.90
2019-05-02T09:06:05.890Z,55.30
2019-05-02T09:07:01.057Z,56.20
2019-05-02T09:08:00.051Z,61.10
2019-05-02T09:09:00.023Z,54.10
2019-05-02T09:10:00.163Z,57.50
2019-05-02T09:11:01.070Z,64.90
2019-05-02T09:12:11.395Z,56.70
2019-05-02T09:13:02.675Z,56.60
2019-05-02T09:14:01.945Z,59.10
2019-05-02T09:14:59.922Z,56.90
2019-05-02T09:16:02.781Z,55.30
2019-05-02T09:17:08.618Z,54.70
2019-05-02T09:18:02.685Z,56.10
2019-05-02T09:18:59.889Z,57.20
2019-05-02T09:20:04.969Z,53.90
2019-05-02T09:21:02.071Z,52.10
2019-05-02T09:21:59.914Z,52.30
2019-05-02T09:23:01.617Z,53.80
2019-05-02T09:23:59.832Z,49.40
2019-05-02T09:25:02.107Z,50.40
2019-05-02T09:25:59.814Z,48.40
2019-05-02T09:26:59.823Z,49.10
2019-05-02T09:28:01.735Z,47.80
2019-05-02T09:29:01.710Z,46.30
2019-05-02T09:30:02.739Z,49.80
2019-05-02T09:31:05.025Z,47.90
2019-05-02T09:32:02.132Z,49.70
2019-05-02T09:33:02.843Z,49.30
2019-05-02T09:34:02.548Z,46.80
2019-05-02T09:35:02.351Z,47.20
2019-05-02T09:36:02.378Z,45.30
2019-05-02T09:36:59.750Z,47.80
2019-05-02T09:38:01.638Z,44.50
2019-05-02T09:38:59.710Z,45.90
2019-05-02T09:40:02.047Z,44.90
2019-05-02T09:41:13.822Z,44.40
2019-05-02T09:42:02.174Z,46.60
2019-05-02T09:43:02.201Z,44.00
2019-05-02T09:43:59.636Z,43.90
2019-05-02T09:44:59.618Z,44.30
2019-05-02T09:45:59.605Z,43.70
2019-05-02T09:46:59.574Z,42.10
2019-05-02T09:48:05.182Z,45.00
2019-05-02T09:49:02.881Z,47.80
2019-05-02T09:49:59.605Z,41.70
2019-05-02T09:51:04.527Z,42.80
2019-05-02T09:52:01.280Z,41.80
2019-05-02T09:53:01.700Z,42.30
2019-05-02T09:54:04.698Z,46.00
2019-05-02T09:55:02.751Z,44.10
2019-05-02T09:55:59.492Z,41.70
2019-05-02T09:56:59.474Z,41.00
2019-05-02T09:57:59.499Z,42.90
2019-05-02T09:59:04.825Z,44.20
2019-05-02T10:00:02.156Z,42.40
2019-05-02T10:00:59.440Z,43.90
2019-05-02T10:01:59.432Z,44.70
2019-05-02T10:02:59.415Z,43.80
2019-05-02T10:03:59.487Z,43.00
2019-05-02T10:04:59.432Z,42.30
2019-05-02T10:05:59.393Z,43.60
2019-05-02T10:06:59.453Z,44.60
2019-05-02T10:08:03.120Z,43.20
2019-05-02T10:09:02.631Z,44.30
2019-05-02T10:10:03.115Z,42.10
2019-05-02T10:11:02.619Z,42.30
2019-05-02T10:11:59.348Z,41.80
2019-05-02T10:12:59.311Z,44.90
2019-05-02T10:13:59.303Z,45.40
2019-05-02T10:14:59.327Z,46.80
2019-05-02T10:15:59.274Z,44.90
2019-05-02T10:17:05.133Z,42.70
2019-05-02T10:18:08.686Z,42.50
2019-05-02T10:19:00.498Z,44.20
2019-05-02T10:20:02.029Z,41.60
2019-05-02T10:20:59.232Z,42.80
2019-05-02T10:21:59.203Z,41.50
2019-05-02T10:22:59.191Z,42.50
2019-05-02T10:24:00.864Z,43.50
2019-05-02T10:24:59.186Z,43.40
2019-05-02T10:25:59.183Z,45.30
2019-05-02T10:27:04.297Z,42.50
2019-05-02T10:28:02.142Z,44.40
2019-05-02T10:28:59.135Z,42.60
2019-05-02T10:30:08.207Z,41.90
2019-05-02T10:31:02.086Z,43.80
2019-05-02T10:31:59.111Z,44.40
2019-05-02T10:32:59.119Z,42.90
2019-05-02T10:33:59.061Z,43.70
2019-05-02T10:34:59.076Z,43.50
2019-05-02T10:35:59.105Z,45.00
2019-05-02T10:37:00.401Z,45.10
2019-05-02T10:37:59.055Z,45.80
2019-05-02T10:38:59.399Z,49.50
2019-05-02T10:39:59.012Z,44.10
2019-05-02T10:41:01.823Z,42.40
2019-05-02T10:42:01.993Z,42.70
2019-05-02T10:42:58.975Z,43.80
2019-05-02T10:43:59.621Z,43.60
2019-05-02T10:44:58.988Z,45.20
2019-05-02T10:45:58.934Z,46.80
2019-05-02T10:46:58.994Z,46.80
2019-05-02T10:47:58.926Z,43.90
2019-05-02T10:48:58.914Z,46.30
2019-05-02T10:49:58.904Z,45.10
2019-05-02T10:50:58.876Z,43.30
2019-05-02T10:51:58.899Z,42.30
2019-05-02T10:53:03.492Z,43.10
2019-05-02T10:53:59.855Z,41.20
2019-05-02T10:54:58.855Z,42.80
2019-05-02T10:55:58.841Z,41.60
2019-05-02T10:56:58.843Z,39.90
2019-05-02T10:57:58.842Z,44.30
2019-05-02T10:58:58.807Z,42.40
2019-05-02T10:59:58.808Z,39.00
2019-05-02T11:00:58.786Z,39.20
2019-05-02T11:01:58.773Z,43.40
2019-05-02T11:02:58.775Z,41.80
2019-05-02T11:03:58.733Z,40.20
2019-05-02T11:04:58.741Z,40.70
2019-05-02T11:06:05.640Z,39.50
2019-05-02T11:06:59.717Z,41.00
2019-05-02T11:08:04.715Z,38.20
2019-05-02T11:08:59.697Z,40.30
2019-05-02T11:10:03.145Z,40.40
2019-05-02T11:10:59.657Z,38.40
2019-05-02T11:11:58.658Z,37.60
2019-05-02T11:12:58.665Z,38.50
2019-05-02T11:14:01.045Z,40.00
2019-05-02T11:14:59.634Z,40.30
2019-05-02T11:15:58.604Z,38.20
2019-05-02T11:16:58.609Z,37.00
2019-05-02T11:17:58.616Z,39.20
2019-05-02T11:18:58.599Z,38.80
2019-05-02T11:19:58.570Z,37.60
2019-05-02T11:20:58.962Z,36.20
2019-05-02T11:21:59.246Z,37.00
2019-05-02T11:22:58.563Z,36.70
2019-05-02T11:23:58.664Z,37.40
2019-05-02T11:24:58.565Z,34.40
2019-05-02T11:25:58.507Z,34.10
2019-05-02T11:26:58.497Z,35.50
2019-05-02T11:28:05.451Z,32.90
2019-05-02T11:28:59.497Z,35.10
2019-05-02T11:29:58.468Z,35.20
2019-05-02T11:31:02.602Z,34.60
2019-05-02T11:31:59.443Z,36.10
2019-05-02T11:32:58.447Z,35.10
2019-05-02T11:33:58.456Z,37.00
2019-05-02T11:34:58.452Z,34.40
2019-05-02T11:35:58.428Z,35.60
2019-05-02T11:36:58.398Z,37.70
2019-05-02T11:37:58.378Z,37.40
2019-05-02T11:39:05.402Z,36.50
2019-05-02T11:40:01.357Z,36.20
2019-05-02T11:40:58.364Z,34.60
2019-05-02T11:41:58.386Z,33.10
2019-05-02T11:43:02.868Z,29.80
2019-05-02T11:43:59.330Z,31.50
2019-05-02T11:44:58.307Z,30.40
2019-05-02T11:46:05.588Z,31.10
2019-05-02T11:46:59.279Z,27.90
2019-05-02T11:48:02.037Z,32.00
2019-05-02T11:48:59.274Z,31.40
2019-05-02T11:49:58.239Z,32.80
2019-05-02T11:50:58.248Z,32.00
2019-05-02T11:51:58.232Z,29.40
2019-05-02T11:52:58.256Z,28.20
2019-05-02T11:53:59.304Z,28.80
2019-05-02T11:54:59.199Z,31.20
2019-05-02T11:56:02.394Z,30.60
2019-05-02T11:56:59.190Z,33.10
2019-05-02T11:58:02.414Z,32.90
2019-05-02T11:58:59.169Z,31.80
2019-05-02T11:59:59.476Z,32.40
2019-05-02T12:01:02.859Z,35.10
2019-05-02T12:02:00.097Z,35.00
2019-05-02T12:02:58.470Z,36.00
2019-05-02T12:03:58.125Z,32.20
2019-05-02T12:04:58.101Z,33.20
2019-05-02T12:05:58.094Z,31.70
2019-05-02T12:07:01.328Z,27.70
2019-05-02T12:08:02.595Z,30.90
2019-05-02T12:08:59.052Z,31.60
2019-05-02T12:09:58.063Z,32.00
2019-05-02T12:11:00.966Z,29.20
2019-05-02T12:11:58.053Z,31.30
2019-05-02T12:12:58.003Z,27.80
2019-05-02T12:13:58.052Z,29.70
2019-05-02T12:14:58.004Z,32.20
2019-05-02T12:15:57.997Z,30.20
2019-05-02T12:16:57.975Z,32.10
2019-05-02T12:17:57.996Z,32.30
2019-05-02T12:19:08.577Z,32.50
2019-05-02T12:19:58.928Z,34.00
2019-05-02T12:20:57.936Z,33.30
2019-05-02T12:21:57.905Z,28.30
2019-05-02T12:22:57.958Z,28.60
2019-05-02T12:23:57.914Z,33.70
2019-05-02T12:24:57.872Z,34.10
2019-05-02T12:25:57.875Z,31.30
2019-05-02T12:26:57.859Z,33.10
2019-05-02T12:27:57.874Z,30.70
2019-05-02T12:28:57.868Z,33.30
2019-05-02T12:29:59.290Z,34.70
2019-05-02T12:30:57.814Z,33.80
2019-05-02T12:31:57.806Z,32.80
2019-05-02T12:32:57.816Z,35.50
2019-05-02T12:33:57.783Z,36.50
2019-05-02T12:34:57.772Z,36.40
2019-05-02T12:35:57.768Z,35.40
2019-05-02T12:36:57.746Z,36.40
2019-05-02T12:37:57.776Z,33.30
2019-05-02T12:38:57.738Z,34.20
2019-05-02T12:39:57.718Z,34.40
2019-05-02T12:40:58.004Z,34.40
2019-05-02T12:41:57.910Z,32.70
2019-05-02T12:43:02.354Z,35.80
2019-05-02T12:43:57.669Z,36.20